Time;durP1;ratioP1;P1;durP2;ratioP2;P2;SDS_P1;SDS_P2;PMS_P1;PMS_P2;Temp;Humidity;BMP_temperature;BMP_pressure;BME280_temperature;BME280_humidity;BME280_pressure;Samples;Min_cycle;Max_cycle;Signal;HPM_P1;HPM_P2
2022/07/23 00:01:10;;;;;;;1.37;0.67;;;22.60;99.90;;;;;;5071246;28;20449;-75
2022/07/23 00:03:38;;;;;;;0.70;0.10;;;22.60;99.90;;;;;;5071097;28;20446;-74
2022/07/23 00:06:07;;;;;;;0.80;0.50;;;22.50;99.90;;;;;;5070818;28;20449;-74
2022/07/23 00:08:37;;;;;;;0.70;0.13;;;22.50;99.90;;;;;;5071561;28;20442;-75
2022/07/23 00:11:06;;;;;;;0.80;0.47;;;;;;;;;;5073045;28;20831;-74
2022/07/23 00:13:34;;;;;;;0.70;0.10;;;22.50;99.90;;;;;;5071785;28;20441;-74
2022/07/23 00:16:03;;;;;;;1.33;0.50;;;22.30;99.90;;;;;;5071069;28;20449;-76
2022/07/23 00:18:30;;;;;;;0.70;0.20;;;22.30;99.90;;;;;;5071029;28;20445;-74
2022/07/23 00:20:58;;;;;;;1.00;0.50;;;22.30;99.90;;;;;;5071237;28;20515;-74
2022/07/23 00:23:27;;;;;;;7.30;4.63;;;;;;;;;;5074545;28;20488;-76
2022/07/23 00:25:55;;;;;;;1.27;0.50;;;22.30;99.90;;;;;;5074693;28;20978;-76
2022/07/23 00:28:24;;;;;;;1.10;0.90;;;22.30;99.90;;;;;;5074689;28;20575;-76
2022/07/23 00:30:52;;;;;;;0.70;0.20;;;22.20;99.90;;;;;;5075060;28;20445;-74
2022/07/23 00:33:20;;;;;;;0.70;0.10;;;22.20;99.90;;;;;;5075032;28;20498;-74
2022/07/23 00:35:48;;;;;;;0.70;0.20;;;22.20;99.90;;;;;;5075404;28;20537;-74
2022/07/23 00:38:16;;;;;;;0.80;0.30;;;22.10;99.90;;;;;;5075673;28;20497;-73
2022/07/23 00:40:44;;;;;;;1.83;0.80;;;22.10;99.90;;;;;;5075169;28;20824;-75
2022/07/23 00:43:12;;;;;;;0.70;0.10;;;22.10;99.90;;;;;;5074678;28;20485;-75
2022/07/23 00:45:41;;;;;;;0.70;0.10;;;22.10;99.90;;;;;;5074406;28;20452;-76
2022/07/23 00:48:09;;;;;;;0.70;0.20;;;22.00;99.90;;;;;;5073951;28;20994;-74
2022/07/23 00:50:37;;;;;;;0.70;0.20;;;22.00;99.90;;;;;;5074681;28;20488;-74
2022/07/23 00:53:06;;;;;;;0.70;0.10;;;22.00;99.90;;;;;;5074459;28;20490;-75
2022/07/23 00:55:34;;;;;;;0.70;0.20;;;22.00;99.90;;;;;;5074070;28;20454;-75
2022/07/23 00:58:03;;;;;;;1.07;0.70;;;22.00;99.90;;;;;;5074001;28;20972;-74
2022/07/23 01:00:31;;;;;;;0.70;0.10;;;22.00;99.90;;;;;;5073986;28;20437;-74
2022/07/23 01:03:00;;;;;;;0.70;0.17;;;21.90;99.90;;;;;;5074242;28;20485;-74
2022/07/23 01:05:28;;;;;;;0.70;0.30;;;21.80;99.90;;;;;;5074109;28;20441;-75
2022/07/23 01:07:56;;;;;;;0.70;0.10;;;21.80;99.90;;;;;;5073785;28;20952;-75
2022/07/23 01:10:34;;;;;;;1.43;0.50;;;21.80;99.90;;;;;;5073999;28;20836;-75
2022/07/23 01:13:05;;;;;;;0.70;0.20;;;21.70;99.90;;;;;;5073855;28;20536;-74
2022/07/23 01:15:34;;;;;;;1.50;1.40;;;21.70;99.90;;;;;;5074216;28;20448;-75
2022/07/23 01:18:04;;;;;;;1.47;0.63;;;21.70;99.90;;;;;;5073935;28;20457;-75
2022/07/23 01:20:32;;;;;;;0.70;0.10;;;21.60;99.90;;;;;;5073797;28;20807;-75
2022/07/23 01:23:02;;;;;;;0.70;0.10;;;21.60;99.90;;;;;;5073852;28;20479;-75
2022/07/23 01:25:30;;;;;;;0.80;0.20;;;21.70;99.90;;;;;;5073622;28;20449;-76
2022/07/23 01:27:58;;;;;;;0.70;0.10;;;21.60;99.90;;;;;;5073751;28;20465;-75
2022/07/23 01:30:26;;;;;;;0.70;0.23;;;21.70;99.90;;;;;;5073866;28;20438;-74
2022/07/23 01:32:53;;;;;;;0.70;0.20;;;21.70;99.90;;;;;;5073520;28;20434;-75
2022/07/23 01:35:21;;;;;;;0.70;0.10;;;21.70;99.90;;;;;;5073810;28;20962;-75
2022/07/23 01:37:49;;;;;;;0.70;0.10;;;21.70;99.90;;;;;;5073631;28;20464;-76
2022/07/23 01:40:18;;;;;;;0.70;0.10;;;21.70;99.90;;;;;;5078513;28;20442;-76
2022/07/23 01:42:49;;;;;;;0.70;0.10;;;21.80;99.90;;;;;;5084520;28;20488;-76
2022/07/23 01:45:17;;;;;;;0.70;0.10;;;21.80;99.90;;;;;;5087898;28;20509;-76
2022/07/23 01:47:45;;;;;;;0.70;0.10;;;21.90;99.90;;;;;;5075275;28;20468;-75
2022/07/23 01:50:13;;;;;;;0.70;0.10;;;21.90;99.90;;;;;;5075026;28;20446;-74
2022/07/23 01:52:41;;;;;;;0.70;0.20;;;21.90;99.90;;;;;;5073827;28;20448;-75
2022/07/23 01:55:09;;;;;;;0.87;0.30;;;21.90;99.90;;;;;;5073725;28;20456;-76
2022/07/23 01:57:46;;;;;;;1.70;1.60;;;21.90;99.90;;;;;;5073801;28;20540;-74
2022/07/23 02:00:15;;;;;;;1.50;0.43;;;21.90;99.90;;;;;;5073269;28;20446;-74
2022/07/23 02:02:43;;;;;;;0.70;0.10;;;21.80;99.90;;;;;;5073193;28;21000;-75
2022/07/23 02:05:11;;;;;;;0.70;0.10;;;21.70;99.90;;;;;;5072933;28;20460;-74
2022/07/23 02:07:38;;;;;;;1.00;0.87;;;21.70;99.90;;;;;;5072875;28;20470;-75
2022/07/23 02:10:08;;;;;;;0.70;0.10;;;21.70;99.90;;;;;;5073259;28;20450;-76
2022/07/23 02:12:36;;;;;;;0.70;0.10;;;21.70;99.90;;;;;;5073159;28;20808;-76
2022/07/23 02:15:06;;;;;;;0.70;0.10;;;21.70;99.90;;;;;;5073054;28;20971;-75
2022/07/23 02:17:36;;;;;;;0.70;0.10;;;21.70;99.90;;;;;;5072134;28;20486;-76
2022/07/23 02:20:05;;;;;;;0.70;0.10;;;21.70;99.90;;;;;;5072960;28;20469;-74
2022/07/23 02:22:33;;;;;;;0.70;0.10;;;21.70;99.90;;;;;;5073713;28;22436;-75
2022/07/23 02:25:01;;;;;;;0.70;0.10;;;21.70;99.90;;;;;;5073927;28;20445;-74
2022/07/23 02:27:29;;;;;;;0.70;0.10;;;21.70;99.90;;;;;;5073560;28;20462;-75
2022/07/23 02:29:57;;;;;;;0.70;0.20;;;21.70;99.90;;;;;;5073156;28;21001;-74
2022/07/23 02:32:26;;;;;;;0.70;0.13;;;21.70;99.90;;;;;;5073342;28;20450;-75
2022/07/23 02:34:54;;;;;;;0.70;0.10;;;21.70;99.90;;;;;;5073669;28;20451;-76
2022/07/23 02:37:22;;;;;;;0.70;0.10;;;21.70;99.90;;;;;;5073103;28;20472;-74
2022/07/23 02:39:50;;;;;;;1.47;0.97;;;21.70;99.90;;;;;;5073195;28;20438;-74
2022/07/23 02:42:18;;;;;;;0.70;0.10;;;21.70;99.90;;;;;;5073236;28;20438;-75
2022/07/23 02:44:46;;;;;;;0.70;0.10;;;21.70;99.90;;;;;;5055427;28;20989;-75
2022/07/23 02:47:17;;;;;;;0.70;0.20;;;21.60;99.90;;;;;;5052909;28;20455;-78
2022/07/23 02:49:47;;;;;;;0.70;0.10;;;21.60;99.90;;;;;;5052900;28;20837;-74
2022/07/23 02:52:14;;;;;;;0.70;0.20;;;21.60;99.90;;;;;;5052152;28;20450;-74
2022/07/23 02:54:42;;;;;;;0.70;0.10;;;21.60;99.90;;;;;;5052368;28;20514;-75
2022/07/23 02:57:10;;;;;;;0.70;0.20;;;21.60;99.90;;;;;;5052102;28;20470;-76
2022/07/23 02:59:38;;;;;;;0.70;0.20;;;21.60;99.90;;;;;;5052440;28;20517;-75
2022/07/23 03:02:06;;;;;;;0.70;0.20;;;21.60;99.90;;;;;;5052633;28;20466;-75
2022/07/23 03:04:34;;;;;;;0.70;0.10;;;21.60;99.90;;;;;;5053181;28;20474;-74
2022/07/23 03:07:03;;;;;;;0.70;0.13;;;21.60;99.90;;;;;;5053047;28;20466;-75
2022/07/23 03:09:31;;;;;;;0.70;0.20;;;21.60;99.90;;;;;;5052804;28;20475;-74
2022/07/23 03:11:59;;;;;;;0.70;0.10;;;21.60;99.90;;;;;;5052901;28;20456;-74
2022/07/23 03:14:27;;;;;;;0.70;0.10;;;21.50;99.90;;;;;;5052878;28;20488;-75
2022/07/23 03:16:55;;;;;;;0.70;0.10;;;21.60;99.90;;;;;;5052331;28;20549;-74
2022/07/23 03:19:23;;;;;;;0.70;0.10;;;21.60;99.90;;;;;;5052514;28;20553;-74
2022/07/23 03:21:52;;;;;;;0.70;0.10;;;21.50;99.90;;;;;;5052483;28;20434;-76
2022/07/23 03:24:23;;;;;;;0.70;0.20;;;21.50;99.90;;;;;;5052112;28;20474;-75
2022/07/23 03:26:51;;;;;;;0.70;0.30;;;21.40;99.90;;;;;;5052649;28;20872;-76
2022/07/23 03:29:19;;;;;;;0.70;0.20;;;21.40;99.90;;;;;;5068515;28;20448;-74
2022/07/23 03:31:47;;;;;;;0.70;0.30;;;21.40;99.90;;;;;;5072855;28;20437;-76
2022/07/23 03:34:14;;;;;;;0.70;0.33;;;21.40;99.90;;;;;;5072108;28;20446;-75
2022/07/23 03:36:42;;;;;;;0.70;0.17;;;21.40;99.90;;;;;;5072685;28;20469;-74
2022/07/23 03:39:10;;;;;;;3.23;1.23;;;21.40;99.90;;;;;;5073322;28;20827;-74
2022/07/23 03:41:42;;;;;;;0.70;0.20;;;21.30;99.90;;;;;;5074494;28;20441;-75
2022/07/23 03:44:10;;;;;;;0.70;0.20;;;21.20;99.90;;;;;;5072577;28;20513;-74
2022/07/23 03:46:38;;;;;;;0.70;0.20;;;21.20;99.90;;;;;;5073136;28;21045;-75
2022/07/23 03:49:06;;;;;;;0.70;0.20;;;21.20;99.90;;;;;;5073471;28;20862;-75
2022/07/23 03:51:35;;;;;;;3.43;3.23;;;21.20;99.90;;;;;;5072958;28;20450;-76
2022/07/23 03:54:03;;;;;;;0.70;0.20;;;21.20;99.90;;;;;;5075980;28;20430;-74
2022/07/23 03:56:31;;;;;;;0.70;0.13;;;21.10;99.90;;;;;;5080951;28;20493;-74
2022/07/23 03:59:00;;;;;;;0.70;0.20;;;21.10;99.90;;;;;;5081086;28;20446;-74
2022/07/23 04:01:29;;;;;;;1.00;0.17;;;21.10;99.90;;;;;;5080468;28;20448;-74
2022/07/23 04:03:57;;;;;;;0.70;0.10;;;21.10;99.90;;;;;;5082529;28;20481;-76
2022/07/23 04:06:25;;;;;;;0.70;0.20;;;21.00;99.90;;;;;;5086292;28;20462;-74
2022/07/23 04:08:53;;;;;;;0.70;0.20;;;21.00;99.90;;;;;;5083648;28;20445;-75
2022/07/23 04:11:21;;;;;;;0.70;0.10;;;21.00;99.90;;;;;;5079293;28;20448;-75
2022/07/23 04:13:49;;;;;;;0.70;0.10;;;21.00;99.90;;;;;;5076065;28;20437;-76
2022/07/23 04:16:18;;;;;;;1.07;0.77;;;21.00;99.90;;;;;;5076150;28;20500;-75
2022/07/23 04:18:46;;;;;;;3.03;1.73;;;21.00;99.90;;;;;;5076078;28;20464;-75
2022/07/23 04:21:14;;;;;;;0.70;0.10;;;20.90;99.90;;;;;;5075902;28;20456;-76
2022/07/23 04:23:42;;;;;;;0.70;0.20;;;20.90;99.90;;;;;;5075857;28;20481;-75
2022/07/23 04:26:11;;;;;;;0.70;0.20;;;20.80;99.90;;;;;;5075932;28;20499;-75
2022/07/23 04:28:44;;;;;;;0.70;0.20;;;20.80;99.90;;;;;;5076436;28;20483;-75
2022/07/23 04:31:12;;;;;;;0.70;0.10;;;20.80;99.90;;;;;;5082760;28;20441;-75
2022/07/23 04:33:42;;;;;;;0.70;0.20;;;20.80;99.90;;;;;;5087632;28;20498;-76
2022/07/23 04:36:10;;;;;;;0.70;0.13;;;20.70;99.90;;;;;;5082112;28;20887;-75
2022/07/23 04:38:38;;;;;;;1.37;1.27;;;20.70;99.90;;;;;;5081437;28;20455;-75
2022/07/23 04:41:06;;;;;;;0.70;0.10;;;20.70;99.90;;;;;;5080046;28;20864;-74
2022/07/23 04:43:33;;;;;;;0.70;0.20;;;20.70;99.90;;;;;;5075700;28;20452;-74
2022/07/23 04:46:01;;;;;;;0.73;0.40;;;20.80;99.90;;;;;;5075366;28;20441;-74
2022/07/23 04:48:29;;;;;;;2.13;2.03;;;20.80;99.90;;;;;;5075259;28;20536;-75
2022/07/23 04:50:59;;;;;;;0.70;0.17;;;20.80;99.90;;;;;;5076278;28;20491;-75
2022/07/23 04:53:27;;;;;;;0.70;0.10;;;20.90;99.90;;;;;;5075628;28;20449;-75
2022/07/23 04:55:55;;;;;;;0.70;0.17;;;20.90;99.90;;;;;;5074915;28;20444;-74
2022/07/23 04:58:23;;;;;;;0.67;0.10;;;20.90;99.90;;;;;;5075204;28;20446;-76
2022/07/23 05:00:50;;;;;;;0.70;0.10;;;21.00;99.90;;;;;;5075255;28;20753;-76
2022/07/23 05:03:18;;;;;;;0.70;0.40;;;21.00;99.90;;;;;;5075263;28;20445;-76
2022/07/23 05:05:46;;;;;;;0.70;0.10;;;21.00;99.90;;;;;;5075173;28;20516;-76
2022/07/23 05:08:16;;;;;;;0.70;0.20;;;21.10;99.90;;;;;;5073261;28;20466;-75
2022/07/23 05:10:43;;;;;;;0.70;0.20;;;21.20;99.90;;;;;;5074616;28;20881;-75
2022/07/23 05:13:12;;;;;;;0.80;0.53;;;;;;;;;;5074999;28;20445;-74
2022/07/23 05:15:40;;;;;;;2.60;1.80;;;21.20;99.90;;;;;;5074005;28;20438;-74
2022/07/23 05:18:07;;;;;;;0.70;0.17;;;21.20;99.90;;;;;;5074181;28;20515;-74
2022/07/23 05:20:35;;;;;;;0.60;0.10;;;21.10;99.90;;;;;;5074461;28;20452;-77
2022/07/23 05:23:03;;;;;;;6.13;1.90;;;21.00;99.90;;;;;;5073943;28;20468;-75
2022/07/23 05:25:33;;;;;;;0.93;0.37;;;21.00;99.90;;;;;;5073781;28;20491;-74
2022/07/23 05:28:00;;;;;;;0.70;0.10;;;20.90;99.90;;;;;;5073767;28;20461;-74
2022/07/23 05:30:28;;;;;;;0.70;0.10;;;20.90;99.90;;;;;;5075178;28;20445;-74
2022/07/23 05:32:56;;;;;;;0.70;0.10;;;20.90;99.90;;;;;;5075480;28;20441;-75
2022/07/23 05:35:24;;;;;;;0.97;0.57;;;20.90;99.90;;;;;;5075125;28;20567;-76
2022/07/23 05:37:52;;;;;;;1.37;1.27;;;20.90;99.90;;;;;;5074261;28;20466;-76
2022/07/23 05:40:20;;;;;;;0.70;0.10;;;20.90;99.90;;;;;;5074029;28;20960;-75
2022/07/23 05:42:50;;;;;;;0.70;0.10;;;20.80;99.90;;;;;;5073528;28;20616;-76
2022/07/23 05:45:18;;;;;;;0.70;0.10;;;20.80;99.90;;;;;;5073429;28;20500;-75
2022/07/23 05:47:47;;;;;;;0.60;0.10;;;20.80;99.90;;;;;;5073502;28;20488;-76
2022/07/23 05:50:15;;;;;;;0.60;0.20;;;20.80;99.90;;;;;;5073548;28;20445;-74
2022/07/23 05:52:44;;;;;;;0.70;0.10;;;20.80;99.90;;;;;;5073760;28;20453;-74
2022/07/23 05:55:13;;;;;;;0.73;0.30;;;20.90;99.90;;;;;;5073188;28;20460;-75
2022/07/23 05:57:41;;;;;;;0.70;0.20;;;20.80;99.90;;;;;;5073141;28;20831;-75
2022/07/23 06:00:11;;;;;;;0.60;0.10;;;20.80;99.90;;;;;;5073439;28;20446;-76
2022/07/23 06:02:39;;;;;;;0.70;0.10;;;20.80;99.90;;;;;;5073279;28;20438;-74
2022/07/23 06:05:08;;;;;;;0.70;0.10;;;20.80;99.90;;;;;;5073292;28;20819;-76
2022/07/23 06:07:36;;;;;;;0.70;0.20;;;20.80;99.90;;;;;;5073179;28;20462;-74
2022/07/23 06:10:05;;;;;;;0.60;0.20;;;20.80;99.90;;;;;;5073352;28;20827;-74
2022/07/23 06:12:33;;;;;;;0.60;0.10;;;20.90;99.90;;;;;;5073202;28;20442;-74
2022/07/23 06:15:01;;;;;;;0.60;0.10;;;20.80;99.90;;;;;;5072376;28;20442;-76
2022/07/23 06:17:31;;;;;;;0.70;0.10;;;20.80;99.90;;;;;;5073636;28;20508;-76
2022/07/23 06:19:59;;;;;;;1.47;0.70;;;20.80;99.90;;;;;;5073850;28;20442;-76
2022/07/23 06:22:26;;;;;;;0.70;0.10;;;20.80;99.90;;;;;;5073980;28;20526;-76
2022/07/23 06:24:55;;;;;;;0.70;0.10;;;19.40;99.90;;;;;;5074137;28;20487;-76
2022/07/23 06:27:23;;;;;;;0.60;0.20;;;20.90;99.90;;;;;;5073257;28;20523;-75
2022/07/23 06:29:53;;;;;;;0.70;0.20;;;20.90;99.90;;;;;;5074049;28;20532;-75
2022/07/23 06:32:21;;;;;;;0.70;0.10;;;21.00;99.90;;;;;;5074662;28;20461;-76
2022/07/23 06:34:51;;;;;;;0.70;0.10;;;21.00;99.90;;;;;;5074667;28;20442;-76
2022/07/23 06:37:18;;;;;;;0.70;0.20;;;21.20;99.90;;;;;;5075013;28;20475;-75
2022/07/23 06:39:47;;;;;;;0.70;0.20;;;21.20;99.90;;;;;;5074003;28;20438;-76
2022/07/23 06:42:15;;;;;;;0.70;0.20;;;21.30;99.90;;;;;;5073478;28;20481;-75
2022/07/23 06:44:43;;;;;;;0.70;0.20;;;21.40;99.90;;;;;;5073354;28;20879;-75
2022/07/23 06:47:11;;;;;;;1.27;0.60;;;21.50;99.90;;;;;;5074323;28;20466;-76
2022/07/23 06:49:40;;;;;;;0.70;0.10;;;21.60;99.90;;;;;;5074831;28;20453;-76
2022/07/23 06:52:10;;;;;;;0.70;0.10;;;21.60;99.90;;;;;;5074945;28;20445;-75
2022/07/23 06:54:38;;;;;;;0.80;0.30;;;21.60;99.90;;;;;;5073427;28;21005;-74
2022/07/23 06:57:06;;;;;;;1.20;0.70;;;21.60;99.90;;;;;;5073267;28;20972;-75
2022/07/23 06:59:36;;;;;;;0.70;0.20;;;21.60;99.90;;;;;;5072665;28;20532;-75
2022/07/23 07:02:04;;;;;;;0.70;0.10;;;21.60;99.90;;;;;;5073166;28;20453;-75
2022/07/23 07:04:32;;;;;;;0.70;0.20;;;21.60;99.90;;;;;;5072788;28;20449;-78
2022/07/23 07:07:00;;;;;;;0.70;0.10;;;21.60;99.90;;;;;;5073165;28;20491;-75
2022/07/23 07:09:29;;;;;;;0.70;0.20;;;21.70;99.90;;;;;;5074905;28;20485;-76
2022/07/23 07:11:57;;;;;;;0.70;0.20;;;21.80;99.90;;;;;;5073995;28;20907;-76
2022/07/23 07:14:25;;;;;;;0.70;0.20;;;21.80;99.90;;;;;;5074288;28;20463;-77
2022/07/23 07:16:53;;;;;;;0.70;0.10;;;21.90;99.90;;;;;;5075178;28;20862;-76
2022/07/23 07:19:21;;;;;;;0.70;0.10;;;22.00;99.90;;;;;;5073512;28;20873;-75
2022/07/23 07:21:49;;;;;;;0.70;0.10;;;22.10;99.90;;;;;;5073084;28;20448;-74
2022/07/23 07:24:17;;;;;;;0.70;0.10;;;22.20;99.90;;;;;;5080158;28;20449;-75
2022/07/23 07:26:46;;;;;;;0.80;0.30;;;22.30;99.90;;;;;;5085006;28;20489;-75
2022/07/23 07:29:14;;;;;;;0.70;0.17;;;22.40;99.90;;;;;;5076788;28;20520;-75
2022/07/23 07:31:42;;;;;;;0.70;0.10;;;22.40;99.90;;;;;;5073145;28;21013;-76
2022/07/23 07:34:11;;;;;;;0.70;0.20;;;22.50;99.90;;;;;;5072389;28;20444;-77
2022/07/23 07:36:39;;;;;;;0.70;0.20;;;22.70;99.90;;;;;;5072047;28;20465;-74
2022/07/23 07:39:09;;;;;;;0.70;0.10;;;22.70;99.90;;;;;;5072780;28;20454;-75
2022/07/23 07:41:38;;;;;;;0.70;0.10;;;22.70;99.90;;;;;;5072037;28;20445;-75
2022/07/23 07:44:07;;;;;;;0.70;0.10;;;22.80;99.90;;;;;;5072327;28;20448;-76
2022/07/23 07:46:35;;;;;;;0.70;0.23;;;22.80;99.90;;;;;;5071794;28;20564;-75
2022/07/23 07:49:03;;;;;;;0.70;0.10;;;22.80;99.90;;;;;;5072493;28;20450;-74
2022/07/23 07:51:32;;;;;;;0.70;0.13;;;22.90;99.90;;;;;;5072258;28;20442;-74
2022/07/23 07:54:02;;;;;;;0.70;0.10;;;22.90;99.90;;;;;;5072662;28;20446;-76
2022/07/23 07:56:31;;;;;;;1.57;0.30;;;22.90;99.90;;;;;;5071475;28;20462;-74
2022/07/23 07:59:00;;;;;;;0.70;0.10;;;22.90;99.90;;;;;;5071697;28;20812;-76
2022/07/23 08:01:29;;;;;;;0.70;0.10;;;22.90;99.90;;;;;;5071811;28;20531;-76
2022/07/23 08:03:57;;;;;;;0.70;0.20;;;22.90;99.90;;;;;;5071848;28;20911;-76
2022/07/23 08:06:26;;;;;;;0.70;0.10;;;23.00;99.90;;;;;;5071331;28;20509;-76
2022/07/23 08:08:53;;;;;;;0.70;0.20;;;23.00;99.90;;;;;;5072274;28;20450;-76
2022/07/23 08:11:21;;;;;;;0.70;0.20;;;23.00;99.90;;;;;;5071578;28;20453;-75
2022/07/23 08:13:49;;;;;;;0.70;0.20;;;23.00;99.90;;;;;;5069005;28;20469;-73
2022/07/23 08:16:17;;;;;;;0.70;0.20;;;23.10;99.90;;;;;;5071199;28;20984;-76
2022/07/23 08:18:47;;;;;;;1.10;0.63;;;23.10;99.90;;;;;;5072022;28;20859;-74
2022/07/23 08:21:15;;;;;;;1.23;0.87;;;23.10;99.90;;;;;;5072404;28;20449;-74
2022/07/23 08:23:43;;;;;;;0.70;0.20;;;23.40;99.90;;;;;;5071758;28;20453;-74
2022/07/23 08:26:11;;;;;;;0.70;0.20;;;23.40;99.90;;;;;;5071242;28;20479;-74
2022/07/23 08:28:39;;;;;;;0.70;0.30;;;23.40;99.90;;;;;;5071471;28;21282;-75
2022/07/23 08:31:07;;;;;;;0.70;0.10;;;23.40;99.90;;;;;;5071499;28;20460;-75
2022/07/23 08:33:35;;;;;;;0.70;0.30;;;23.50;99.90;;;;;;5071349;28;20536;-74
2022/07/23 08:36:05;;;;;;;0.70;0.10;;;23.60;99.90;;;;;;5071232;28;20450;-75
2022/07/23 08:38:33;;;;;;;0.70;0.10;;;23.60;99.90;;;;;;5071348;28;20446;-75
2022/07/23 08:41:01;;;;;;;0.70;0.10;;;23.70;99.90;;;;;;5072780;28;20445;-75
2022/07/23 08:43:31;;;;;;;0.70;0.10;;;23.80;99.90;;;;;;5074174;28;20467;-75
2022/07/23 08:46:01;;;;;;;1.13;0.37;;;23.90;99.90;;;;;;5075178;28;20441;-75
2022/07/23 08:48:30;;;;;;;0.70;0.13;;;23.90;99.90;;;;;;5075317;28;20445;-75
2022/07/23 08:51:00;;;;;;;0.70;0.10;;;23.80;99.90;;;;;;5075171;28;20449;-74
2022/07/23 08:53:32;;;;;;;0.70;0.10;;;23.80;99.90;;;;;;5075898;28;20445;-74
2022/07/23 08:56:02;;;;;;;0.70;0.20;;;23.90;99.90;;;;;;5074329;28;20446;-75
2022/07/23 08:58:31;;;;;;;0.70;0.13;;;23.90;99.90;;;;;;5074710;28;20437;-75
2022/07/23 09:00:59;;;;;;;0.70;0.10;;;23.90;99.90;;;;;;5075294;28;20533;-75
2022/07/23 09:03:29;;;;;;;0.70;0.10;;;23.90;99.90;;;;;;5075919;28;20503;-74
2022/07/23 09:05:58;;;;;;;0.70;0.10;;;24.10;99.90;;;;;;5074296;28;20444;-75
2022/07/23 09:08:35;;;;;;;0.70;0.20;;;24.10;99.90;;;;;;5074675;28;20448;-74
2022/07/23 09:11:05;;;;;;;0.70;0.10;;;24.20;99.90;;;;;;5074727;28;20504;-75
2022/07/23 09:13:36;;;;;;;0.70;0.10;;;24.30;99.90;;;;;;5074426;28;20445;-76
2022/07/23 09:16:07;;;;;;;0.70;0.20;;;24.40;99.90;;;;;;5074687;28;20456;-73
2022/07/23 09:18:39;;;;;;;0.70;0.20;;;24.50;99.90;;;;;;5074634;28;20450;-74
2022/07/23 09:21:15;;;;;;;0.70;0.20;;;24.50;99.90;;;;;;5075545;28;20448;-74
2022/07/23 09:23:45;;;;;;;0.70;0.20;;;24.60;99.90;;;;;;5075145;28;20538;-74
2022/07/23 09:26:29;;;;;;;0.70;0.20;;;24.70;99.90;;;;;;5075086;28;20438;-73
2022/07/23 09:29:01;;;;;;;0.70;0.10;;;24.80;99.90;;;;;;5074841;28;20528;-75
2022/07/23 09:31:35;;;;;;;0.70;0.10;;;24.80;99.90;;;;;;5074498;28;20488;-74
2022/07/23 09:34:15;;;;;;;0.70;0.10;;;25.10;99.90;;;;;;5074285;28;20442;-74
2022/07/23 09:36:44;;;;;;;0.70;0.10;;;25.10;99.90;;;;;;5075422;28;20557;-75
2022/07/23 09:39:13;;;;;;;0.70;0.20;;;25.20;99.90;;;;;;5073782;28;20445;-74
2022/07/23 09:41:45;;;;;;;0.70;0.10;;;25.20;99.90;;;;;;5074290;28;20444;-74
2022/07/23 09:44:16;;;;;;;0.70;0.20;;;25.20;99.90;;;;;;5074133;28;20916;-73
2022/07/23 09:46:45;;;;;;;1.30;0.87;;;25.30;99.90;;;;;;5074554;28;20564;-74
2022/07/23 09:49:18;;;;;;;0.70;0.20;;;25.20;99.90;;;;;;5074074;28;20449;-74
2022/07/23 09:51:53;;;;;;;0.70;0.20;;;25.30;99.90;;;;;;5073894;28;20437;-74
2022/07/23 09:54:33;;;;;;;0.70;0.10;;;25.30;99.90;;;;;;5073606;28;20449;-74
2022/07/23 09:57:05;;;;;;;0.70;0.20;;;25.40;99.90;;;;;;5073541;28;20454;-72
2022/07/23 09:59:36;;;;;;;0.70;0.10;;;25.40;99.90;;;;;;5073788;28;20812;-75
2022/07/23 10:02:05;;;;;;;0.70;0.30;;;25.60;99.90;;;;;;5074125;28;20816;-75
2022/07/23 10:04:34;;;;;;;0.70;0.20;;;25.70;99.90;;;;;;5073798;28;20815;-75
2022/07/23 10:07:07;;;;;;;1.47;0.87;;;25.80;99.90;;;;;;5073487;28;20492;-76
2022/07/23 10:09:37;;;;;;;0.70;0.27;;;25.80;99.90;;;;;;5073763;28;20441;-74
2022/07/23 10:12:24;;;;;;;0.70;0.20;;;25.80;99.90;;;;;;5073409;28;20456;-75
2022/07/23 10:14:53;;;;;;;0.70;0.30;;;25.80;99.90;;;;;;5073900;28;20429;-77
2022/07/23 10:17:21;;;;;;;0.70;0.33;;;26.00;99.90;;;;;;5073186;28;21002;-74
2022/07/23 10:19:49;;;;;;;0.70;0.10;;;26.00;99.90;;;;;;5073326;28;20448;-75
2022/07/23 10:22:21;;;;;;;0.70;0.20;;;26.00;99.90;;;;;;5075801;28;20484;-75
2022/07/23 10:25:00;;;;;;;0.70;0.10;;;26.20;99.90;;;;;;5083532;28;20512;-75
2022/07/23 10:27:48;;;;;;;1.57;0.90;;;26.30;99.90;;;;;;5084228;28;20578;-74
2022/07/23 10:30:21;;;;;;;0.70;0.10;;;26.30;99.90;;;;;;5079134;28;20438;-76
2022/07/23 10:33:00;;;;;;;0.70;0.10;;;26.40;99.90;;;;;;5073945;28;20442;-76
2022/07/23 10:35:37;;;;;;;0.70;0.10;;;26.40;99.90;;;;;;5074207;28;20509;-76
2022/07/23 10:38:14;;;;;;;0.70;0.10;;;26.30;99.90;;;;;;5073325;28;20489;-74
2022/07/23 10:40:56;;;;;;;0.70;0.10;;;26.40;99.90;;;;;;5073177;28;20470;-75
2022/07/23 10:43:26;;;;;;;0.70;0.10;;;26.40;99.90;;;;;;5073192;28;20445;-75
2022/07/23 10:45:55;;;;;;;0.70;0.13;;;26.40;99.90;;;;;;5072944;28;20889;-75
2022/07/23 10:48:25;;;;;;;0.70;0.10;;;26.50;99.90;;;;;;5073064;28;20478;-76
2022/07/23 10:51:11;;;;;;;0.70;0.20;;;26.50;99.90;;;;;;5072669;28;20446;-76
2022/07/23 10:53:56;;;;;;;0.70;0.13;;;26.60;99.90;;;;;;5072667;28;20449;-75
2022/07/23 10:57:08;;;;;;;0.70;0.10;;;26.70;99.90;;;;;;5072671;28;20457;-74
2022/07/23 11:00:14;;;;;;;0.77;0.30;;;26.70;99.90;;;;;;5073492;28;20454;-75
2022/07/23 11:02:45;;;;;;;0.70;0.20;;;26.60;99.90;;;;;;5073025;28;20532;-75
2022/07/23 11:05:15;;;;;;;0.70;0.20;;;26.50;99.90;;;;;;5072460;28;20445;-75
2022/07/23 11:08:14;;;;;;;0.80;0.40;;;26.50;99.90;;;;;;5072806;28;20676;-74
2022/07/23 11:10:45;;;;;;;0.70;0.30;;;26.50;99.90;;;;;;5072591;28;20485;-74
2022/07/23 11:13:47;;;;;;;0.70;0.30;;;26.70;99.90;;;;;;5072560;28;20438;-75
2022/07/23 11:16:18;;;;;;;0.70;0.17;;;26.80;99.90;;;;;;5072275;28;20530;-75
2022/07/23 11:19:07;;;;;;;0.70;0.10;;;26.80;99.90;;;;;;5072047;28;20441;-75
2022/07/23 11:21:46;;;;;;;0.70;0.20;;;26.90;99.90;;;;;;5072447;28;20460;-75
2022/07/23 11:24:16;;;;;;;0.70;0.10;;;27.00;99.90;;;;;;5072577;28;20425;-75
2022/07/23 11:26:50;;;;;;;0.70;0.20;;;27.10;99.90;;;;;;5072275;28;20555;-75
2022/07/23 11:29:44;;;;;;;0.70;0.10;;;27.10;99.90;;;;;;5072233;28;20474;-74
2022/07/23 11:32:39;;;;;;;0.70;0.10;;;27.20;99.90;;;;;;5072566;28;20441;-76
2022/07/23 11:35:22;;;;;;;0.70;0.10;;;27.30;99.90;;;;;;5072715;28;20932;-75
2022/07/23 11:37:53;;;;;;;0.70;0.20;;;27.30;99.90;;;;;;5072762;28;20553;-75
2022/07/23 11:40:23;;;;;;;0.90;0.40;;;27.40;99.90;;;;;;5073522;28;20445;-76
2022/07/23 11:42:57;;;;;;;0.70;0.20;;;27.40;99.90;;;;;;5073536;28;20445;-76
2022/07/23 11:45:27;;;;;;;0.70;0.20;;;27.50;99.90;;;;;;5073195;28;20882;-76
2022/07/23 11:47:55;;;;;;;0.70;0.10;;;27.50;99.90;;;;;;5074359;28;20620;-76
2022/07/23 11:50:26;;;;;;;0.70;0.20;;;27.50;99.90;;;;;;5077836;28;20442;-75
2022/07/23 11:52:54;;;;;;;2.97;2.20;;;27.60;99.90;;;;;;5081098;28;20838;-75
2022/07/23 11:55:22;;;;;;;1.20;0.47;;;27.60;99.90;;;;;;5079360;28;20445;-75
2022/07/23 11:57:52;;;;;;;0.70;0.20;;;27.60;99.90;;;;;;5073041;28;20462;-75
2022/07/23 12:00:23;;;;;;;0.70;0.10;;;27.60;99.90;;;;;;5072778;28;20441;-75
2022/07/23 12:02:54;;;;;;;0.70;0.10;;;27.80;99.90;;;;;;5072905;28;20940;-75
2022/07/23 12:05:26;;;;;;;0.70;0.20;;;27.70;99.90;;;;;;5072048;28;20441;-75
2022/07/23 12:07:54;;;;;;;0.70;0.10;;;;;;;;;;5071792;28;20489;-76
2022/07/23 12:10:25;;;;;;;0.97;0.30;;;27.90;99.90;;;;;;5072456;28;20450;-75
2022/07/23 12:12:55;;;;;;;0.70;0.10;;;27.90;99.90;;;;;;5072514;28;20540;-75
2022/07/23 12:15:26;;;;;;;0.70;0.10;;;28.00;99.90;;;;;;5072279;28;20446;-75
2022/07/23 12:17:55;;;;;;;0.70;0.10;;;28.00;99.90;;;;;;5077382;28;20468;-75
2022/07/23 12:20:27;;;;;;;0.70;0.20;;;28.00;99.90;;;;;;5078204;28;20452;-74
2022/07/23 12:22:59;;;;;;;0.80;0.40;;;28.10;99.90;;;;;;5075256;28;20448;-75
2022/07/23 12:25:29;;;;;;;0.70;0.20;;;28.20;99.90;;;;;;5075164;28;20437;-75
2022/07/23 12:28:03;;;;;;;0.70;0.10;;;28.30;99.90;;;;;;5074518;28;21016;-75
2022/07/23 12:30:33;;;;;;;1.37;1.27;;;28.30;99.90;;;;;;5075571;28;20537;-75
2022/07/23 12:33:02;;;;;;;0.70;0.17;;;28.40;99.90;;;;;;5075806;28;20422;-75
2022/07/23 12:35:36;;;;;;;0.70;0.10;;;28.40;99.90;;;;;;5076507;28;20453;-75
2022/07/23 12:38:06;;;;;;;0.70;0.10;;;28.50;99.90;;;;;;5076256;28;20461;-74
2022/07/23 12:40:36;;;;;;;0.70;0.13;;;28.60;99.90;;;;;;5075347;28;20449;-74
2022/07/23 12:43:08;;;;;;;0.70;0.20;;;28.70;99.90;;;;;;5076019;28;20448;-75
2022/07/23 12:45:47;;;;;;;0.70;0.20;;;28.80;99.90;;;;;;5075889;28;20434;-75
2022/07/23 12:48:24;;;;;;;0.70;0.20;;;28.80;99.90;;;;;;5075282;28;20560;-75
2022/07/23 12:50:57;;;;;;;0.70;0.20;;;28.80;99.90;;;;;;5075344;28;20470;-75
2022/07/23 12:53:29;;;;;;;0.70;0.10;;;28.70;99.90;;;;;;5075522;28;20441;-73
2022/07/23 12:56:06;;;;;;;0.70;0.20;;;28.30;99.90;;;;;;5074827;28;20477;-75
2022/07/23 12:58:46;;;;;;;0.70;0.20;;;28.30;99.90;;;;;;5074807;28;20434;-75
2022/07/23 13:01:30;;;;;;;0.70;0.10;;;28.10;99.90;;;;;;5075026;28;20940;-75
2022/07/23 13:04:01;;;;;;;0.70;0.10;;;28.00;99.90;;;;;;5075350;28;20831;-75